createdAt,value
2023-10-10T00:00:29.577Z,24.42
2023-10-10T00:01:33.798Z,27.55
2023-10-10T00:02:36.189Z,28.83
2023-10-10T00:03:41.472Z,25.50
2023-10-10T00:04:44.939Z,23.15
2023-10-10T00:05:47.313Z,26.90
2023-10-10T00:06:50.894Z,24.63
2023-10-10T00:07:54.712Z,27.73
2023-10-10T00:08:56.234Z,25.38
2023-10-10T00:09:58.764Z,26.27
2023-10-10T00:11:00.174Z,26.00
2023-10-10T00:12:03.084Z,23.65
2023-10-10T00:13:05.390Z,24.42
2023-10-10T00:14:08.172Z,25.05
2023-10-10T00:15:13.701Z,24.98
2023-10-10T00:16:21.254Z,24.48
2023-10-10T00:17:22.812Z,24.77
2023-10-10T00:18:26.117Z,24.80
2023-10-10T00:19:31.679Z,24.95
2023-10-10T00:20:42.258Z,25.45
2023-10-10T00:21:43.705Z,24.15
2023-10-10T00:22:49.207Z,30.08
2023-10-10T00:23:51.375Z,25.98
2023-10-10T00:24:53.924Z,26.10
2023-10-10T00:25:57.028Z,27.10
2023-10-10T00:27:01.268Z,29.23
2023-10-10T00:28:07.632Z,27.23
2023-10-10T00:29:10.636Z,23.88
2023-10-10T00:30:12.375Z,26.35
2023-10-10T00:31:19.477Z,26.77
2023-10-10T00:32:24.441Z,26.88
2023-10-10T00:33:27.657Z,30.73
2023-10-10T00:34:29.060Z,25.88
2023-10-10T00:35:32.245Z,28.17
2023-10-10T00:36:36.615Z,30.60
2023-10-10T00:37:39.156Z,27.80
2023-10-10T00:38:42.689Z,32.83
2023-10-10T00:39:53.488Z,28.10
2023-10-10T00:40:57.950Z,28.15
2023-10-10T00:42:05.624Z,26.85
2023-10-10T00:43:07.045Z,29.20
2023-10-10T00:44:12.795Z,25.55
2023-10-10T00:45:15.434Z,28.15
2023-10-10T00:46:18.619Z,27.88
2023-10-10T00:47:26.195Z,26.77
2023-10-10T00:48:31.077Z,27.00
2023-10-10T00:49:35.347Z,30.77
2023-10-10T00:50:38.608Z,27.85
2023-10-10T00:51:40.440Z,28.63
2023-10-10T00:52:42.888Z,31.55
2023-10-10T00:53:46.307Z,29.90
2023-10-10T00:54:50.814Z,30.70
2023-10-10T00:55:57.771Z,32.42
2023-10-10T00:57:00.909Z,29.45
2023-10-10T00:58:02.759Z,33.58
2023-10-10T00:59:07.714Z,30.65
2023-10-10T01:00:10.956Z,32.17
2023-10-10T01:01:16.082Z,27.42
2023-10-10T01:02:18.349Z,29.67
2023-10-10T01:03:22.546Z,28.95
2023-10-10T01:04:36.812Z,26.85
2023-10-10T01:05:41.391Z,28.92
2023-10-10T01:06:43.926Z,29.60
2023-10-10T01:07:48.228Z,26.65
2023-10-10T01:08:50.963Z,27.77
2023-10-10T01:10:00.905Z,31.55
2023-10-10T01:11:06.035Z,32.83
2023-10-10T01:12:10.973Z,30.17
2023-10-10T01:13:12.408Z,28.95
2023-10-10T01:14:19.641Z,30.35
2023-10-10T01:15:26.360Z,30.35
2023-10-10T01:16:29.794Z,27.42
2023-10-10T01:17:32.096Z,29.75
2023-10-10T01:18:33.904Z,27.92
2023-10-10T01:19:36.374Z,30.27
2023-10-10T01:20:46.132Z,27.60
2023-10-10T01:21:52.826Z,28.75
2023-10-10T01:22:57.696Z,37.58
2023-10-10T01:24:02.936Z,27.95
2023-10-10T01:25:27.672Z,30.35
2023-10-10T01:26:37.566Z,27.92
2023-10-10T01:27:40.990Z,30.02
2023-10-10T01:28:42.864Z,29.85
2023-10-10T01:29:51.551Z,34.63
2023-10-10T01:31:00.532Z,30.75
2023-10-10T01:32:03.815Z,33.55
2023-10-10T01:33:06.594Z,29.33
2023-10-10T01:34:10.588Z,30.10
2023-10-10T01:35:17.905Z,33.65
2023-10-10T01:36:23.588Z,30.75
2023-10-10T01:37:30.220Z,30.90
2023-10-10T01:38:35.095Z,31.33
2023-10-10T01:39:37.628Z,28.67
2023-10-10T01:40:39.145Z,30.00
2023-10-10T01:41:41.215Z,31.40
2023-10-10T01:42:46.747Z,29.75
2023-10-10T01:43:48.183Z,29.90
2023-10-10T01:44:53.049Z,29.10
2023-10-10T01:46:10.049Z,30.80
2023-10-10T01:47:27.053Z,27.63
2023-10-10T01:48:28.495Z,30.58
2023-10-10T01:49:31.169Z,28.05
2023-10-10T01:50:32.621Z,25.92
2023-10-10T01:51:34.919Z,26.90
2023-10-10T01:52:37.608Z,25.55
2023-10-10T01:53:41.392Z,26.52
2023-10-10T01:54:47.097Z,28.98
2023-10-10T01:55:51.273Z,25.83
2023-10-10T01:56:54.754Z,28.88
2023-10-10T01:57:58.802Z,28.65
2023-10-10T01:59:04.226Z,28.10
2023-10-10T02:00:21.022Z,25.88
2023-10-10T02:01:25.175Z,28.35
2023-10-10T02:02:28.652Z,29.95
2023-10-10T02:03:30.243Z,25.75
2023-10-10T02:04:36.201Z,28.88
2023-10-10T02:05:46.684Z,26.95
2023-10-10T02:06:48.931Z,26.77
2023-10-10T02:07:54.884Z,25.75
2023-10-10T02:08:57.564Z,30.65
2023-10-10T02:10:14.267Z,24.15
2023-10-10T02:11:15.724Z,29.75
2023-10-10T02:12:20.945Z,27.75
2023-10-10T02:13:23.544Z,25.50
2023-10-10T02:14:26.812Z,27.10
2023-10-10T02:15:33.411Z,25.50
2023-10-10T02:16:40.660Z,25.65
2023-10-10T02:17:43.999Z,24.50
2023-10-10T02:18:52.474Z,27.80
2023-10-10T02:20:01.018Z,27.48
2023-10-10T02:21:07.891Z,27.42
2023-10-10T02:22:20.444Z,25.40
2023-10-10T02:23:25.843Z,27.35
2023-10-10T02:24:39.960Z,25.67
2023-10-10T02:25:42.249Z,27.67
2023-10-10T02:26:43.706Z,26.88
2023-10-10T02:27:56.011Z,29.15
2023-10-10T02:29:18.139Z,28.77
2023-10-10T02:30:26.030Z,25.20
2023-10-10T02:31:29.640Z,27.73
2023-10-10T02:32:34.625Z,30.52
2023-10-10T02:33:38.867Z,27.75
2023-10-10T02:34:44.095Z,26.20
2023-10-10T02:35:56.003Z,27.15
2023-10-10T02:37:14.252Z,24.40
2023-10-10T02:38:17.754Z,27.02
2023-10-10T02:39:30.532Z,24.40
2023-10-10T02:40:32.516Z,25.75
2023-10-10T02:41:39.469Z,26.73
2023-10-10T02:42:50.461Z,25.85
2023-10-10T02:44:03.259Z,32.83
2023-10-10T02:45:06.972Z,25.92
2023-10-10T02:46:08.435Z,24.73
2023-10-10T02:47:13.393Z,27.17
2023-10-10T02:48:21.878Z,25.38
2023-10-10T02:49:30.947Z,26.00
2023-10-10T02:50:41.357Z,27.85
2023-10-10T02:51:44.369Z,24.35
2023-10-10T02:52:47.104Z,26.67
2023-10-10T02:53:49.584Z,26.73
2023-10-10T02:54:55.245Z,27.60
2023-10-10T02:56:02.791Z,28.40
2023-10-10T02:57:21.969Z,24.95
2023-10-10T02:58:29.028Z,28.10
2023-10-10T02:59:33.267Z,28.17
2023-10-10T03:00:35.342Z,27.52
2023-10-10T03:03:04.528Z,25.90
2023-10-10T03:04:09.335Z,23.25
2023-10-10T03:05:16.934Z,26.20
2023-10-10T03:06:19.995Z,25.65
2023-10-10T03:07:28.805Z,26.02
2023-10-10T03:08:38.529Z,25.05
2023-10-10T03:09:43.565Z,24.77
2023-10-10T03:10:46.844Z,24.10
2023-10-10T03:12:04.641Z,23.45
2023-10-10T03:13:14.270Z,26.33
2023-10-10T03:14:26.993Z,26.38
2023-10-10T03:15:29.775Z,23.33
2023-10-10T03:16:45.142Z,25.88
2023-10-10T03:17:49.760Z,29.02
2023-10-10T03:18:56.794Z,28.15
2023-10-10T03:20:14.002Z,23.98
2023-10-10T03:21:25.171Z,25.52
2023-10-10T03:22:32.528Z,25.40
2023-10-10T03:23:42.381Z,27.08
2023-10-10T03:25:06.073Z,27.17
2023-10-10T03:26:07.607Z,26.88
2023-10-10T03:27:43.144Z,26.95
2023-10-10T03:28:48.694Z,28.83
2023-10-10T03:29:51.389Z,27.90
2023-10-10T03:30:54.964Z,27.30
2023-10-10T03:32:20.906Z,26.95
2023-10-10T03:33:36.982Z,27.45
2023-10-10T03:34:45.751Z,28.73
2023-10-10T03:36:00.033Z,27.30
2023-10-10T03:37:20.595Z,26.00
2023-10-10T03:38:45.923Z,24.85
2023-10-10T03:39:54.807Z,29.88
2023-10-10T03:41:11.135Z,25.08
2023-10-10T03:42:31.310Z,27.00
2023-10-10T03:43:51.652Z,23.63
2023-10-10T03:45:10.972Z,25.33
2023-10-10T03:46:31.152Z,23.73
2023-10-10T03:47:51.503Z,26.65
2023-10-10T03:49:20.179Z,23.50
2023-10-10T03:50:40.208Z,27.02
2023-10-10T03:52:00.213Z,25.75
2023-10-10T03:53:20.531Z,29.42
2023-10-10T03:54:45.913Z,25.75
2023-10-10T03:56:05.844Z,25.20
2023-10-10T03:57:25.860Z,25.05
2023-10-10T03:58:45.741Z,24.50
2023-10-10T04:00:06.074Z,25.60
2023-10-10T04:01:26.469Z,24.80
2023-10-10T04:02:46.955Z,27.15
2023-10-10T04:04:12.277Z,26.40
2023-10-10T04:05:32.155Z,24.65
2023-10-10T04:06:52.161Z,24.58
2023-10-10T04:08:12.294Z,26.15
2023-10-10T04:09:32.423Z,26.80
2023-10-10T04:10:48.754Z,27.75
2023-10-10T04:12:08.644Z,26.23
2023-10-10T04:13:28.473Z,26.00
2023-10-10T04:14:48.590Z,26.50
2023-10-10T04:16:08.618Z,28.58
2023-10-10T04:17:28.947Z,27.35
2023-10-10T04:18:49.549Z,28.08
2023-10-10T04:20:09.965Z,26.95
2023-10-10T04:21:30.209Z,29.05
2023-10-10T04:22:50.253Z,28.30
2023-10-10T04:24:10.348Z,28.60
2023-10-10T04:25:30.480Z,29.30
2023-10-10T04:26:50.781Z,32.53
2023-10-10T04:28:10.883Z,27.70
2023-10-10T04:29:31.180Z,29.42
2023-10-10T04:30:51.155Z,30.48
2023-10-10T04:32:16.703Z,32.42
2023-10-10T04:33:36.727Z,27.20
2023-10-10T04:34:56.500Z,30.40
2023-10-10T04:36:16.952Z,29.77
2023-10-10T04:37:36.939Z,30.05
2023-10-10T04:38:56.833Z,26.25
2023-10-10T04:40:16.858Z,27.63
2023-10-10T04:41:37.032Z,25.75
2023-10-10T04:42:57.436Z,30.77
2023-10-10T04:44:17.115Z,32.10
2023-10-10T04:45:37.456Z,30.58
2023-10-10T04:46:57.811Z,36.05
2023-10-10T04:48:17.993Z,35.40
2023-10-10T04:49:37.858Z,30.75
2023-10-10T04:50:58.078Z,31.02
2023-10-10T04:52:18.057Z,35.40
2023-10-10T04:53:38.256Z,31.92
2023-10-10T04:54:58.176Z,32.47
2023-10-10T04:56:18.312Z,33.97
2023-10-10T04:57:38.760Z,30.52
2023-10-10T04:58:58.680Z,34.10
2023-10-10T05:00:18.779Z,35.45
2023-10-10T05:01:38.800Z,34.15
2023-10-10T05:02:58.953Z,33.50
2023-10-10T05:04:19.341Z,32.33
2023-10-10T05:05:39.816Z,32.97
2023-10-10T05:07:00.230Z,28.75
2023-10-10T05:08:20.627Z,28.27
2023-10-10T05:09:40.746Z,31.75
2023-10-10T05:11:00.644Z,30.98
2023-10-10T05:12:20.737Z,27.73
2023-10-10T05:13:40.663Z,31.00
2023-10-10T05:15:00.800Z,29.15
2023-10-10T05:16:20.830Z,30.45
2023-10-10T05:17:41.186Z,28.58
2023-10-10T05:19:01.836Z,28.73
2023-10-10T05:20:21.752Z,31.83
2023-10-10T05:21:41.710Z,33.13
2023-10-10T05:23:01.897Z,28.92
2023-10-10T05:24:10.215Z,31.30
2023-10-10T05:25:14.234Z,33.88
2023-10-10T05:26:16.667Z,31.65
2023-10-10T05:27:18.067Z,31.67
2023-10-10T05:28:21.046Z,37.20
2023-10-10T05:29:22.461Z,31.23
2023-10-10T05:30:25.797Z,33.47
2023-10-10T05:31:31.963Z,29.95
2023-10-10T05:32:34.474Z,32.58
2023-10-10T05:33:37.580Z,31.98
2023-10-10T05:34:40.066Z,32.33
2023-10-10T05:35:41.805Z,31.23
2023-10-10T05:36:45.970Z,28.05
2023-10-10T05:37:47.360Z,32.55
2023-10-10T05:38:51.739Z,31.48
2023-10-10T05:39:57.479Z,34.22
2023-10-10T05:41:03.661Z,31.20
2023-10-10T05:42:05.730Z,29.35
2023-10-10T05:43:10.724Z,35.35
2023-10-10T05:44:14.730Z,32.72
2023-10-10T05:45:17.516Z,34.05
2023-10-10T05:46:18.955Z,33.58
2023-10-10T05:47:21.763Z,33.38
2023-10-10T05:48:23.366Z,33.67
2023-10-10T05:49:25.927Z,35.90
2023-10-10T05:50:28.334Z,28.83
2023-10-10T05:51:31.144Z,29.13
2023-10-10T05:52:34.369Z,30.75
2023-10-10T05:53:36.836Z,28.25
2023-10-10T05:54:39.287Z,26.83
2023-10-10T05:55:42.046Z,30.95
2023-10-10T05:56:47.513Z,30.05
2023-10-10T05:57:49.972Z,31.45
2023-10-10T05:58:52.267Z,35.47
2023-10-10T05:59:56.340Z,29.50
2023-10-10T06:00:59.802Z,30.02
2023-10-10T06:02:02.877Z,28.55
2023-10-10T06:03:05.298Z,32.47
2023-10-10T06:04:08.820Z,28.52
2023-10-10T06:05:10.676Z,29.85
2023-10-10T06:06:14.801Z,29.05
2023-10-10T06:07:17.003Z,32.00
2023-10-10T06:08:19.408Z,29.23
2023-10-10T06:09:20.961Z,33.22
2023-10-10T06:10:30.111Z,28.92
2023-10-10T06:11:34.142Z,32.45
2023-10-10T06:12:41.140Z,31.38
2023-10-10T06:13:44.796Z,31.55
2023-10-10T06:14:48.199Z,31.42
2023-10-10T06:15:51.481Z,29.90
2023-10-10T06:16:55.253Z,28.50
2023-10-10T06:17:58.874Z,27.55
2023-10-10T06:19:02.347Z,28.52
2023-10-10T06:20:07.521Z,30.83
2023-10-10T06:21:11.015Z,29.58
2023-10-10T06:22:16.103Z,28.60
2023-10-10T06:23:21.961Z,29.35
2023-10-10T06:24:24.116Z,28.38
2023-10-10T06:25:26.522Z,30.08
2023-10-10T06:26:29.784Z,28.95
2023-10-10T06:27:34.149Z,26.65
2023-10-10T06:28:46.324Z,28.13
2023-10-10T06:29:49.900Z,27.13
2023-10-10T06:30:54.087Z,27.88
2023-10-10T06:31:57.825Z,28.58
2023-10-10T06:33:10.419Z,32.35
2023-10-10T06:34:21.736Z,30.20
2023-10-10T06:35:30.678Z,28.88
2023-10-10T06:36:33.614Z,30.38
2023-10-10T06:37:36.737Z,30.15
2023-10-10T06:38:42.577Z,30.65
2023-10-10T06:39:55.671Z,31.83
2023-10-10T06:41:00.362Z,31.52
2023-10-10T06:42:04.939Z,27.58
2023-10-10T06:43:09.064Z,27.80
2023-10-10T06:44:14.956Z,28.88
2023-10-10T06:45:22.668Z,29.20
2023-10-10T06:46:25.040Z,28.15
2023-10-10T06:47:29.954Z,26.10
2023-10-10T06:48:42.065Z,23.65
2023-10-10T06:49:56.466Z,24.38
2023-10-10T06:51:01.396Z,24.67
2023-10-10T06:52:03.869Z,22.48
2023-10-10T06:53:05.438Z,22.58
2023-10-10T06:54:09.567Z,24.35
2023-10-10T06:55:12.131Z,20.65
2023-10-10T06:56:19.013Z,23.05
2023-10-10T06:57:20.504Z,22.38
2023-10-10T06:58:22.968Z,20.00
2023-10-10T06:59:28.205Z,21.80
2023-10-10T07:00:41.691Z,23.17
2023-10-10T07:01:43.131Z,20.70
2023-10-10T07:02:49.820Z,19.92
2023-10-10T07:03:55.664Z,21.20
2023-10-10T07:04:58.309Z,19.13
2023-10-10T07:06:03.416Z,19.02
2023-10-10T07:07:07.376Z,19.45
2023-10-10T07:08:15.503Z,20.52
2023-10-10T07:09:29.842Z,17.85
2023-10-10T07:10:35.055Z,16.73
2023-10-10T07:11:40.140Z,21.83
2023-10-10T07:12:41.572Z,20.35
2023-10-10T07:13:45.711Z,19.40
2023-10-10T07:14:48.239Z,18.92
2023-10-10T07:15:53.773Z,17.60
2023-10-10T07:16:58.088Z,19.13
2023-10-10T07:18:10.181Z,18.10
2023-10-10T07:19:24.884Z,17.92
2023-10-10T07:20:45.188Z,17.63
2023-10-10T07:21:46.631Z,17.15
2023-10-10T07:22:48.221Z,18.67
2023-10-10T07:24:04.304Z,19.77
2023-10-10T07:25:08.213Z,18.85
2023-10-10T07:26:19.946Z,18.48
2023-10-10T07:27:25.886Z,16.40
2023-10-10T07:28:28.452Z,20.15
2023-10-10T07:29:32.310Z,17.55
2023-10-10T07:30:35.674Z,18.73
2023-10-10T07:31:41.517Z,15.75
2023-10-10T07:32:44.215Z,17.25
2023-10-10T07:33:45.925Z,14.70
2023-10-10T07:34:52.123Z,15.90
2023-10-10T07:35:55.041Z,15.05
2023-10-10T07:36:59.608Z,18.33
2023-10-10T07:38:00.992Z,17.55
2023-10-10T07:39:29.197Z,15.90
2023-10-10T07:40:32.540Z,15.23
2023-10-10T07:41:37.158Z,16.20
2023-10-10T07:42:39.712Z,14.32
2023-10-10T07:43:41.249Z,15.63
2023-10-10T07:44:43.667Z,13.73
2023-10-10T07:45:45.109Z,16.00
2023-10-10T07:47:09.986Z,14.55
2023-10-10T07:48:38.598Z,12.32
2023-10-10T07:49:41.959Z,18.17
2023-10-10T07:50:48.872Z,14.77
2023-10-10T07:51:51.752Z,13.43
2023-10-10T07:52:53.141Z,15.15
2023-10-10T07:54:02.578Z,14.98
2023-10-10T07:55:05.434Z,14.05
2023-10-10T07:56:07.901Z,13.70
2023-10-10T07:57:13.374Z,13.52
2023-10-10T07:58:15.739Z,14.75
2023-10-10T07:59:17.998Z,17.63
2023-10-10T08:00:26.212Z,13.10
2023-10-10T08:01:28.613Z,12.75
2023-10-10T08:02:34.146Z,13.23
2023-10-10T08:03:35.917Z,14.55
2023-10-10T08:04:39.049Z,13.15
2023-10-10T08:05:43.694Z,12.88
2023-10-10T08:06:46.542Z,14.02
2023-10-10T08:07:47.918Z,16.17
2023-10-10T08:08:57.280Z,12.68
2023-10-10T08:10:13.435Z,12.93
2023-10-10T08:11:25.650Z,15.80
2023-10-10T08:12:30.756Z,15.52
2023-10-10T08:13:33.623Z,13.95
2023-10-10T08:14:38.774Z,15.50
2023-10-10T08:15:50.008Z,13.95
2023-10-10T08:17:00.164Z,12.20
2023-10-10T08:18:02.761Z,14.60
2023-10-10T08:19:08.758Z,14.95
2023-10-10T08:20:31.842Z,14.98
2023-10-10T08:21:38.580Z,14.90
2023-10-10T08:22:40.928Z,14.27
2023-10-10T08:23:44.292Z,12.48
2023-10-10T08:24:46.875Z,12.05
2023-10-10T08:25:49.715Z,14.45
2023-10-10T08:26:53.292Z,15.10
2023-10-10T08:27:56.225Z,13.18
2023-10-10T08:28:58.778Z,28.17
2023-10-10T08:30:00.148Z,15.85
2023-10-10T08:31:02.571Z,18.35
2023-10-10T08:32:06.441Z,19.75
2023-10-10T08:33:08.954Z,20.48
2023-10-10T08:34:10.838Z,18.85
2023-10-10T08:35:13.453Z,17.77
2023-10-10T08:36:24.336Z,15.52
2023-10-10T08:37:28.762Z,13.32
2023-10-10T08:38:30.307Z,15.90
2023-10-10T08:39:36.632Z,12.80
2023-10-10T08:40:38.102Z,14.55
2023-10-10T08:41:39.742Z,10.90
2023-10-10T08:42:42.665Z,13.57
2023-10-10T08:43:46.653Z,10.68
2023-10-10T08:44:49.714Z,11.43
2023-10-10T08:45:55.881Z,13.73
2023-10-10T08:46:59.858Z,11.40
2023-10-10T08:48:01.944Z,12.35
2023-10-10T08:49:05.879Z,14.68
2023-10-10T08:50:07.796Z,12.18
2023-10-10T08:51:10.401Z,12.48
2023-10-10T08:52:11.767Z,12.95
2023-10-10T08:53:14.335Z,11.32
2023-10-10T08:54:17.179Z,17.17
2023-10-10T08:55:27.213Z,12.68
2023-10-10T08:56:30.049Z,13.73
2023-10-10T08:57:38.524Z,13.00
2023-10-10T08:58:39.895Z,12.60
2023-10-10T08:59:43.616Z,13.27
2023-10-10T09:00:48.301Z,11.38
2023-10-10T09:01:52.297Z,14.38
2023-10-10T09:02:53.904Z,11.27
2023-10-10T09:03:58.693Z,11.60
2023-10-10T09:05:01.347Z,12.45
2023-10-10T09:06:02.766Z,11.13
2023-10-10T09:07:09.677Z,10.52
2023-10-10T09:08:16.035Z,12.60
2023-10-10T09:09:35.634Z,9.73
2023-10-10T09:10:40.673Z,10.80
2023-10-10T09:11:42.175Z,10.38
2023-10-10T09:12:59.264Z,11.75
2023-10-10T09:14:02.385Z,12.00
2023-10-10T09:15:06.193Z,10.98
2023-10-10T09:16:14.360Z,11.60
2023-10-10T09:17:17.092Z,13.75
2023-10-10T09:18:18.846Z,13.13
2023-10-10T09:19:21.444Z,11.20
2023-10-10T09:20:24.286Z,13.00
2023-10-10T09:21:26.040Z,10.50
2023-10-10T09:22:29.708Z,11.57
2023-10-10T09:23:34.615Z,10.45
2023-10-10T09:24:39.815Z,9.50
2023-10-10T09:25:43.579Z,8.90
2023-10-10T09:26:52.112Z,11.40
2023-10-10T09:27:57.673Z,10.57
2023-10-10T09:29:01.346Z,11.15
2023-10-10T09:30:10.638Z,10.25
2023-10-10T09:31:21.470Z,11.52
2023-10-10T09:32:29.083Z,15.20
2023-10-10T09:33:34.748Z,10.90
2023-10-10T09:34:42.151Z,9.85
2023-10-10T09:35:50.036Z,12.05
2023-10-10T09:36:54.800Z,9.88
2023-10-10T09:38:01.219Z,11.65
2023-10-10T09:39:10.112Z,15.50
2023-10-10T09:40:17.001Z,10.90
2023-10-10T09:41:28.727Z,12.00
2023-10-10T09:42:45.915Z,13.18
2023-10-10T09:44:02.151Z,10.68
2023-10-10T09:45:21.273Z,9.75
2023-10-10T09:46:27.110Z,12.88
2023-10-10T09:47:42.307Z,11.27
2023-10-10T09:49:02.611Z,10.68
2023-10-10T09:50:22.825Z,11.57
2023-10-10T09:51:48.449Z,12.30
2023-10-10T09:52:54.807Z,11.73
2023-10-10T09:54:08.641Z,13.05
2023-10-10T09:55:30.072Z,13.60
2023-10-10T09:56:32.597Z,13.75
2023-10-10T09:57:33.984Z,11.13
2023-10-10T09:58:42.965Z,11.60
2023-10-10T09:59:44.520Z,10.85
2023-10-10T10:00:48.191Z,13.00
2023-10-10T10:01:49.895Z,13.77
2023-10-10T10:02:58.187Z,9.00
2023-10-10T10:04:01.674Z,11.38
2023-10-10T10:05:14.987Z,10.52
2023-10-10T10:06:36.029Z,12.30
2023-10-10T10:07:38.615Z,10.73
2023-10-10T10:08:45.898Z,11.15
2023-10-10T10:09:47.739Z,9.13
2023-10-10T10:10:50.550Z,10.43
2023-10-10T10:11:52.898Z,9.35
2023-10-10T10:12:54.704Z,12.45
2023-10-10T10:14:09.209Z,10.93
2023-10-10T10:15:17.669Z,10.85
2023-10-10T10:16:26.469Z,11.80
2023-10-10T10:17:32.120Z,10.25
2023-10-10T10:18:45.477Z,12.02
2023-10-10T10:19:49.307Z,9.52
2023-10-10T10:21:06.917Z,12.73
2023-10-10T10:22:09.466Z,9.63
2023-10-10T10:23:14.102Z,11.10
2023-10-10T10:24:27.535Z,9.70
2023-10-10T10:25:35.410Z,12.05
2023-10-10T10:26:43.564Z,12.05
2023-10-10T10:27:50.497Z,11.23
2023-10-10T10:28:57.758Z,10.63
2023-10-10T10:30:09.828Z,10.50
2023-10-10T10:31:17.676Z,12.35
2023-10-10T10:32:20.032Z,13.52
2023-10-10T10:33:22.929Z,11.10
2023-10-10T10:34:33.185Z,14.25
2023-10-10T10:35:38.443Z,11.82
2023-10-10T10:36:42.467Z,10.93
2023-10-10T10:37:44.909Z,11.57
2023-10-10T10:39:01.229Z,9.82
2023-10-10T10:40:21.453Z,9.50
2023-10-10T10:41:42.929Z,11.15
2023-10-10T10:42:48.064Z,12.00
2023-10-10T10:43:49.664Z,14.93
2023-10-10T10:44:56.742Z,11.85
2023-10-10T10:46:13.255Z,9.15
2023-10-10T10:47:15.363Z,14.20
2023-10-10T10:48:30.925Z,12.02
2023-10-10T10:49:33.424Z,11.40
2023-10-10T10:50:46.881Z,12.68
2023-10-10T10:51:50.064Z,11.38
2023-10-10T10:52:57.140Z,11.93
2023-10-10T10:53:59.888Z,10.20
2023-10-10T10:55:20.084Z,8.30
2023-10-10T10:56:39.958Z,8.93
2023-10-10T10:57:50.326Z,8.02
2023-10-10T10:59:07.298Z,10.93
2023-10-10T11:00:27.116Z,11.13
2023-10-10T11:01:29.094Z,9.77
2023-10-10T11:02:31.727Z,8.38
2023-10-10T11:03:35.209Z,11.75
2023-10-10T11:04:46.553Z,10.05
2023-10-10T11:05:48.135Z,10.95
2023-10-10T11:06:49.551Z,9.98
2023-10-10T11:07:52.456Z,11.13
2023-10-10T11:08:58.048Z,10.90
2023-10-10T11:10:09.061Z,8.90
2023-10-10T11:11:25.400Z,8.18
2023-10-10T11:12:32.926Z,9.98
2023-10-10T11:13:36.031Z,7.93
2023-10-10T11:14:46.288Z,8.00
2023-10-10T11:15:47.917Z,10.88
2023-10-10T11:16:57.640Z,11.15
2023-10-10T11:18:09.177Z,8.65
2023-10-10T11:19:34.374Z,9.90
2023-10-10T11:20:55.870Z,7.43
2023-10-10T11:21:58.256Z,8.55
2023-10-10T11:23:12.924Z,9.05
2023-10-10T11:24:16.343Z,9.93
2023-10-10T11:25:28.256Z,10.90
2023-10-10T11:26:35.853Z,8.02
2023-10-10T11:27:45.018Z,7.43
2023-10-10T11:28:49.106Z,7.55
2023-10-10T11:29:52.456Z,9.52
2023-10-10T11:30:58.943Z,11.88
2023-10-10T11:32:08.402Z,11.57
2023-10-10T11:33:18.049Z,10.32
2023-10-10T11:34:43.481Z,10.07
2023-10-10T11:35:49.037Z,7.90
2023-10-10T11:36:52.385Z,10.50
2023-10-10T11:38:00.616Z,11.13
2023-10-10T11:39:17.486Z,9.98
2023-10-10T11:40:32.675Z,8.85
2023-10-10T11:41:36.430Z,10.18
2023-10-10T11:42:37.931Z,8.05
2023-10-10T11:43:40.387Z,9.65
2023-10-10T11:44:42.784Z,11.27
2023-10-10T11:45:52.758Z,8.65
2023-10-10T11:47:04.121Z,10.80
2023-10-10T11:48:11.779Z,10.15
2023-10-10T11:49:13.283Z,10.45
2023-10-10T11:50:16.695Z,8.88
2023-10-10T11:51:18.221Z,9.65
2023-10-10T11:52:19.969Z,9.65
2023-10-10T11:53:25.370Z,11.50
2023-10-10T11:54:29.043Z,9.50
2023-10-10T11:55:31.521Z,11.23
2023-10-10T11:56:35.587Z,9.32
2023-10-10T11:57:38.204Z,10.68
2023-10-10T11:58:39.635Z,10.15
2023-10-10T11:59:45.533Z,10.57
2023-10-10T12:00:47.153Z,10.98
2023-10-10T12:01:51.035Z,7.78
2023-10-10T12:02:56.638Z,12.40
2023-10-10T12:04:08.096Z,9.55
2023-10-10T12:05:37.010Z,9.27
2023-10-10T12:06:42.967Z,10.73
2023-10-10T12:07:45.358Z,11.30
2023-10-10T12:08:48.140Z,10.82
2023-10-10T12:09:53.135Z,10.85
2023-10-10T12:11:03.548Z,11.52
2023-10-10T12:12:05.996Z,10.23
2023-10-10T12:13:10.538Z,10.20
2023-10-10T12:14:20.416Z,8.25
2023-10-10T12:15:23.563Z,9.50
2023-10-10T12:16:26.406Z,9.00
2023-10-10T12:17:29.011Z,12.13
2023-10-10T12:18:31.947Z,9.15
2023-10-10T12:19:37.594Z,9.23
2023-10-10T12:20:43.484Z,8.77
2023-10-10T12:21:46.021Z,10.10
2023-10-10T12:22:47.401Z,7.72
2023-10-10T12:23:49.857Z,8.05
2023-10-10T12:24:51.735Z,8.48
2023-10-10T12:25:55.382Z,11.73
2023-10-10T12:26:56.798Z,9.07
2023-10-10T12:28:01.664Z,9.88
2023-10-10T12:29:04.001Z,6.60
2023-10-10T12:30:06.955Z,11.73
2023-10-10T12:31:16.852Z,10.27
2023-10-10T12:32:23.751Z,8.27
2023-10-10T12:33:25.498Z,9.13
2023-10-10T12:34:28.024Z,8.63
2023-10-10T12:35:30.150Z,8.48
2023-10-10T12:36:34.182Z,8.70
2023-10-10T12:37:38.114Z,9.98
2023-10-10T12:38:40.958Z,7.80
2023-10-10T12:39:43.064Z,7.70
2023-10-10T12:40:45.498Z,9.38
2023-10-10T12:41:47.550Z,10.45
2023-10-10T12:42:50.532Z,8.38
2023-10-10T12:43:51.946Z,8.60
2023-10-10T12:44:54.734Z,10.55
2023-10-10T12:45:56.353Z,15.48
2023-10-10T12:47:00.224Z,7.80
2023-10-10T12:48:04.293Z,7.22
2023-10-10T12:49:05.789Z,8.27
2023-10-10T12:50:14.326Z,7.55
2023-10-10T12:51:15.783Z,9.55
2023-10-10T12:52:19.829Z,6.80
2023-10-10T12:53:21.426Z,10.02
2023-10-10T12:54:28.478Z,6.97
2023-10-10T12:55:30.188Z,8.52
2023-10-10T12:56:39.675Z,9.07
2023-10-10T12:57:41.129Z,10.40
2023-10-10T12:58:44.498Z,8.18
2023-10-10T12:59:48.045Z,7.78
2023-10-10T13:00:52.982Z,9.32
2023-10-10T13:01:57.884Z,11.90
2023-10-10T13:02:59.755Z,11.90
2023-10-10T13:04:08.755Z,10.40
2023-10-10T13:05:12.481Z,7.68
2023-10-10T13:06:15.578Z,11.25
2023-10-10T13:07:17.541Z,9.57
2023-10-10T13:08:21.413Z,5.90
2023-10-10T13:09:23.321Z,8.45
2023-10-10T13:10:28.984Z,8.48
2023-10-10T13:11:33.878Z,9.05
2023-10-10T13:12:36.462Z,8.05
2023-10-10T13:13:46.493Z,11.05
2023-10-10T13:14:52.095Z,9.65
2023-10-10T13:16:08.576Z,9.93
2023-10-10T13:17:31.097Z,7.70
2023-10-10T13:18:33.047Z,8.38
2023-10-10T13:19:34.548Z,6.65
2023-10-10T13:20:36.917Z,9.38
2023-10-10T13:21:38.319Z,6.85
2023-10-10T13:22:40.886Z,8.40
2023-10-10T13:23:44.789Z,8.82
2023-10-10T13:24:47.260Z,8.25
2023-10-10T13:25:50.064Z,8.73
2023-10-10T13:26:52.590Z,9.95
2023-10-10T13:27:54.091Z,6.30
2023-10-10T13:28:56.440Z,8.45
2023-10-10T13:29:57.990Z,8.05
2023-10-10T13:31:03.450Z,5.95
2023-10-10T13:32:07.960Z,8.05
2023-10-10T13:33:10.502Z,7.82
2023-10-10T13:34:12.024Z,6.97
2023-10-10T13:35:14.387Z,9.82
2023-10-10T13:36:16.825Z,8.48
2023-10-10T13:37:20.107Z,8.77
2023-10-10T13:38:21.558Z,8.35
2023-10-10T13:39:34.770Z,8.27
2023-10-10T13:40:38.979Z,7.57
2023-10-10T13:41:42.713Z,6.75
2023-10-10T13:44:04.807Z,7.32
2023-10-10T13:45:12.345Z,6.95
2023-10-10T13:46:15.121Z,7.75
2023-10-10T13:47:18.135Z,8.57
2023-10-10T13:48:23.293Z,10.27
2023-10-10T13:49:24.770Z,8.80
2023-10-10T13:50:42.583Z,8.38
2023-10-10T13:51:45.595Z,7.97
2023-10-10T13:52:47.205Z,8.32
2023-10-10T13:53:49.633Z,8.98
2023-10-10T13:54:53.147Z,8.43
2023-10-10T13:55:55.557Z,9.80
2023-10-10T13:56:58.022Z,9.23
2023-10-10T13:57:59.561Z,7.75
2023-10-10T13:59:01.956Z,8.05
2023-10-10T14:00:19.527Z,8.90
2023-10-10T14:01:27.525Z,6.72
2023-10-10T14:02:32.858Z,10.65
2023-10-10T14:03:37.354Z,8.85
2023-10-10T14:04:48.017Z,8.23
2023-10-10T14:06:01.999Z,7.30
2023-10-10T14:07:06.985Z,9.38
2023-10-10T14:08:18.818Z,7.32
2023-10-10T14:09:23.196Z,9.85
2023-10-10T14:10:24.576Z,8.93
2023-10-10T14:11:27.009Z,7.43
2023-10-10T14:12:33.256Z,8.13
2023-10-10T14:13:36.759Z,9.07
2023-10-10T14:14:38.203Z,7.30
2023-10-10T14:15:39.588Z,8.75
2023-10-10T14:16:42.612Z,11.38
2023-10-10T14:17:44.288Z,9.80
2023-10-10T14:18:48.420Z,10.30
2023-10-10T14:19:51.148Z,8.52
2023-10-10T14:20:52.619Z,10.13
2023-10-10T14:21:55.139Z,9.40
2023-10-10T14:22:56.590Z,8.75
2023-10-10T14:24:06.155Z,6.60
2023-10-10T14:25:13.439Z,8.90
2023-10-10T14:26:18.357Z,8.80
2023-10-10T14:27:21.265Z,7.93
2023-10-10T14:28:22.999Z,11.10
2023-10-10T14:29:25.485Z,9.50
2023-10-10T14:30:26.935Z,10.38
2023-10-10T14:31:32.209Z,8.68
2023-10-10T14:32:38.632Z,7.90
2023-10-10T14:33:42.084Z,7.95
2023-10-10T14:34:45.351Z,8.88
2023-10-10T14:35:49.340Z,9.02